createdAt,value
2018-04-11T00:00:40.003Z,73.93
2018-04-11T00:03:05.843Z,74.02
2018-04-11T00:05:31.507Z,74.19
2018-04-11T00:07:57.200Z,74.23
2018-04-11T00:10:22.867Z,74.19
2018-04-11T00:12:48.571Z,74.12
2018-04-11T00:15:14.302Z,73.81
2018-04-11T00:17:39.975Z,74.09
2018-04-11T00:20:05.651Z,74.13
2018-04-11T00:22:31.358Z,74.48
2018-04-11T00:24:57.043Z,74.74
2018-04-11T00:27:22.719Z,74.67
2018-04-11T00:29:48.395Z,74.60
2018-04-11T00:32:14.048Z,74.67
2018-04-11T00:34:39.720Z,74.71
2018-04-11T00:37:05.378Z,74.51
2018-04-11T00:39:31.071Z,74.57
2018-04-11T00:41:56.779Z,74.48
2018-04-11T00:44:22.477Z,74.29
2018-04-11T00:46:48.200Z,74.41
2018-04-11T00:49:13.911Z,74.25
2018-04-11T00:51:39.571Z,74.12
2018-04-11T00:54:05.262Z,74.03
2018-04-11T00:56:30.938Z,73.75
2018-04-11T00:58:56.655Z,73.67
2018-04-11T01:01:22.998Z,73.58
2018-04-11T01:03:48.678Z,73.53
2018-04-11T01:06:14.341Z,73.74
2018-04-11T01:08:40.080Z,73.70
2018-04-11T01:11:05.750Z,73.55
2018-04-11T01:13:31.411Z,73.47
2018-04-11T01:15:57.066Z,73.40
2018-04-11T01:18:22.753Z,73.20
2018-04-11T01:20:48.436Z,73.10
2018-04-11T01:23:14.107Z,73.42
2018-04-11T01:25:39.832Z,73.92
2018-04-11T01:28:05.495Z,73.97
2018-04-11T01:30:31.202Z,73.84
2018-04-11T01:32:56.883Z,73.76
2018-04-11T01:35:22.555Z,73.63
2018-04-11T01:37:48.431Z,73.48
2018-04-11T01:40:14.356Z,73.37
2018-04-11T01:42:40.027Z,73.61
2018-04-11T01:45:05.747Z,73.71
2018-04-11T01:47:32.041Z,73.66
2018-04-11T01:49:57.870Z,74.02
2018-04-11T01:52:23.522Z,74.18
2018-04-11T01:54:49.208Z,74.35
2018-04-11T01:57:14.917Z,74.15
2018-04-11T01:59:40.637Z,74.17
2018-04-11T02:02:06.322Z,74.31
2018-04-11T02:04:32.058Z,74.34
2018-04-11T02:06:57.714Z,74.43
2018-04-11T02:09:23.374Z,74.50
2018-04-11T02:11:49.073Z,74.47
2018-04-11T02:14:14.759Z,74.54
2018-04-11T02:16:40.538Z,74.57
2018-04-11T02:19:06.199Z,74.57
2018-04-11T02:21:31.934Z,74.83
2018-04-11T02:23:57.592Z,75.02
2018-04-11T02:26:23.282Z,75.09
2018-04-11T02:28:49.053Z,74.98
2018-04-11T02:31:14.738Z,74.83
2018-04-11T02:33:40.473Z,74.75
2018-04-11T02:36:06.161Z,74.91
2018-04-11T02:38:32.003Z,75.01
2018-04-11T02:40:57.675Z,75.21
2018-04-11T02:43:23.412Z,75.18
2018-04-11T02:45:49.314Z,75.29
2018-04-11T02:48:14.991Z,75.32
2018-04-11T02:50:40.667Z,75.13
2018-04-11T02:53:06.319Z,74.95
2018-04-11T02:55:31.974Z,74.89
2018-04-11T02:57:57.643Z,75.08
2018-04-11T03:00:23.317Z,75.12
2018-04-11T03:02:49.067Z,75.14
2018-04-11T03:05:14.752Z,75.02
2018-04-11T03:07:40.448Z,74.72
2018-04-11T03:10:06.114Z,74.73
2018-04-11T03:12:31.783Z,74.94
2018-04-11T03:14:57.460Z,74.81
2018-04-11T03:17:23.151Z,75.42
2018-04-11T03:19:48.871Z,76.14
2018-04-11T03:22:14.592Z,75.99
2018-04-11T03:24:40.283Z,76.51
2018-04-11T03:27:05.983Z,77.89
2018-04-11T03:29:31.803Z,78.27
2018-04-11T03:31:57.479Z,78.31
2018-04-11T03:34:23.168Z,78.37
2018-04-11T03:36:48.850Z,77.92
2018-04-11T03:39:14.515Z,78.20
2018-04-11T03:41:40.194Z,78.82
2018-04-11T03:44:05.879Z,79.11
2018-04-11T03:46:31.550Z,79.37
2018-04-11T03:48:57.244Z,79.05
2018-04-11T03:51:22.906Z,78.90
2018-04-11T03:53:48.699Z,78.71
2018-04-11T03:56:14.358Z,78.52
2018-04-11T03:58:40.059Z,78.50
2018-04-11T04:01:05.719Z,78.89
2018-04-11T04:03:31.699Z,79.36
2018-04-11T04:05:57.384Z,79.62
2018-04-11T04:08:23.099Z,79.30
2018-04-11T04:10:48.771Z,79.47
2018-04-11T04:13:14.460Z,79.32
2018-04-11T04:15:46.296Z,80.00
2018-04-11T04:18:18.182Z,80.16
2018-04-11T04:20:43.869Z,80.03
2018-04-11T04:23:09.574Z,80.03
2018-04-11T04:25:35.252Z,80.26
2018-04-11T04:28:00.936Z,79.66
2018-04-11T04:30:26.610Z,79.85
2018-04-11T04:32:52.337Z,79.96
2018-04-11T04:35:17.991Z,79.39
2018-04-11T04:37:43.667Z,79.54
2018-04-11T04:40:09.746Z,79.39
2018-04-11T04:42:35.425Z,79.05
2018-04-11T04:45:01.123Z,78.80
2018-04-11T04:47:26.782Z,78.94
2018-04-11T04:49:52.485Z,78.77
2018-04-11T04:52:18.155Z,78.73
2018-04-11T04:54:43.845Z,78.52
2018-04-11T04:57:09.521Z,78.36
2018-04-11T04:59:35.198Z,78.16
2018-04-11T05:02:00.858Z,78.15
2018-04-11T05:04:26.535Z,78.31
2018-04-11T05:06:52.195Z,78.21
2018-04-11T05:09:17.886Z,77.76
2018-04-11T05:11:43.574Z,77.87
2018-04-11T05:14:09.572Z,78.04
2018-04-11T05:16:35.223Z,78.27
2018-04-11T05:19:00.917Z,78.21
2018-04-11T05:21:26.911Z,78.25
2018-04-11T05:23:52.608Z,77.81
2018-04-11T05:26:18.324Z,77.79
2018-04-11T05:28:44.016Z,77.51
2018-04-11T05:31:09.905Z,77.08
2018-04-11T05:33:35.579Z,76.84
2018-04-11T05:36:01.266Z,76.47
2018-04-11T05:38:26.923Z,76.64
2018-04-11T05:40:52.614Z,76.35
2018-04-11T05:43:18.271Z,77.00
2018-04-11T05:45:44.000Z,77.80
2018-04-11T05:48:09.654Z,78.19
2018-04-11T05:50:35.431Z,77.97
2018-04-11T05:53:01.089Z,77.51
2018-04-11T05:55:26.763Z,77.12
2018-04-11T05:57:52.415Z,76.70
2018-04-11T06:00:18.117Z,76.48
2018-04-11T06:02:43.784Z,76.70
2018-04-11T06:05:09.459Z,76.57
2018-04-11T06:07:35.123Z,76.30
2018-04-11T06:10:00.803Z,76.35
2018-04-11T06:12:26.463Z,76.07
2018-04-11T06:14:55.088Z,76.51
2018-04-11T06:17:20.758Z,76.91
2018-04-11T06:19:46.431Z,76.94
2018-04-11T06:22:12.135Z,76.82
2018-04-11T06:24:37.795Z,78.46
2018-04-11T06:27:03.516Z,77.26
2018-04-11T06:29:29.221Z,76.87
2018-04-11T06:31:54.910Z,76.66
2018-04-11T06:34:20.593Z,76.43
2018-04-11T06:36:46.298Z,76.56
2018-04-11T06:39:11.963Z,76.63
2018-04-11T06:41:37.655Z,76.94
2018-04-11T06:44:03.317Z,76.89
2018-04-11T06:46:29.071Z,76.99
2018-04-11T06:48:54.759Z,76.85
2018-04-11T06:51:20.446Z,76.88
2018-04-11T06:53:46.102Z,76.29
2018-04-11T06:56:11.771Z,75.95
2018-04-11T06:58:37.422Z,76.03
2018-04-11T07:01:03.127Z,75.86
2018-04-11T07:03:28.819Z,75.43
2018-04-11T07:05:54.474Z,75.02
2018-04-11T07:08:20.175Z,74.97
2018-04-11T07:10:46.117Z,74.75
2018-04-11T07:13:11.842Z,74.55
2018-04-11T07:15:37.494Z,75.28
2018-04-11T07:18:03.175Z,74.81
2018-04-11T07:20:28.846Z,74.30
2018-04-11T07:22:54.512Z,74.18
2018-04-11T07:25:20.181Z,74.50
2018-04-11T07:27:47.347Z,74.54
2018-04-11T07:30:13.012Z,74.91
2018-04-11T07:32:38.708Z,74.33
2018-04-11T07:35:04.369Z,74.35
2018-04-11T07:37:30.072Z,73.75
2018-04-11T07:39:55.727Z,73.61
2018-04-11T07:42:21.412Z,73.18
2018-04-11T07:44:47.058Z,72.87
2018-04-11T07:47:12.813Z,73.27
2018-04-11T07:49:38.486Z,72.81
2018-04-11T07:52:04.187Z,72.50
2018-04-11T07:54:29.888Z,72.57
2018-04-11T07:56:55.538Z,72.31
2018-04-11T07:59:21.251Z,72.14
2018-04-11T08:01:46.919Z,72.28
2018-04-11T08:04:12.611Z,71.95
2018-04-11T08:06:38.274Z,71.84
2018-04-11T08:09:04.048Z,71.10
2018-04-11T08:11:29.734Z,71.21
2018-04-11T08:13:55.435Z,71.26
2018-04-11T08:16:21.097Z,71.55
2018-04-11T08:18:46.781Z,71.58
2018-04-11T08:21:12.498Z,72.13
2018-04-11T08:23:38.116Z,71.37
2018-04-11T08:26:04.147Z,71.79
2018-04-11T08:28:29.821Z,72.29
2018-04-11T08:30:55.566Z,72.08
2018-04-11T08:33:21.256Z,71.92
2018-04-11T08:35:46.915Z,71.91
2018-04-11T08:38:12.612Z,71.21
2018-04-11T08:40:38.331Z,70.86
2018-04-11T08:43:04.002Z,71.30
2018-04-11T08:45:29.695Z,71.56
2018-04-11T08:47:55.379Z,71.70
2018-04-11T08:50:21.066Z,71.58
2018-04-11T08:52:46.723Z,71.55
2018-04-11T08:55:12.425Z,71.37
2018-04-11T08:57:38.148Z,71.32
2018-04-11T09:00:03.847Z,70.83
2018-04-11T09:02:29.508Z,69.77
2018-04-11T09:04:55.176Z,68.73
2018-04-11T09:07:20.854Z,68.65
2018-04-11T09:09:46.569Z,68.49
2018-04-11T09:12:12.253Z,68.81
2018-04-11T09:14:37.971Z,69.36
2018-04-11T09:17:03.682Z,67.87
2018-04-11T09:19:29.400Z,67.96
2018-04-11T09:21:55.113Z,67.26
2018-04-11T09:24:20.808Z,66.35
2018-04-11T09:26:46.498Z,66.24
2018-04-11T09:29:12.166Z,66.21
2018-04-11T09:31:37.891Z,65.59
2018-04-11T09:34:03.599Z,66.44
2018-04-11T09:36:29.379Z,66.42
2018-04-11T09:38:55.060Z,66.46
2018-04-11T09:41:20.756Z,66.99
2018-04-11T09:43:46.443Z,67.04
2018-04-11T09:46:12.176Z,66.91
2018-04-11T09:48:37.927Z,65.79
2018-04-11T09:51:03.630Z,66.31
2018-04-11T09:53:29.332Z,66.00
2018-04-11T09:55:55.045Z,66.11
2018-04-11T09:58:20.694Z,65.35
2018-04-11T10:00:52.395Z,65.44
2018-04-11T10:03:18.111Z,64.71
2018-04-11T10:05:43.770Z,64.08
2018-04-11T10:08:10.307Z,64.64
2018-04-11T10:10:35.978Z,64.88
2018-04-11T10:13:01.651Z,64.67
2018-04-11T10:15:27.329Z,64.45
2018-04-11T10:17:53.019Z,64.61
2018-04-11T10:20:18.686Z,65.18
2018-04-11T10:22:44.400Z,65.21
2018-04-11T10:25:10.079Z,65.20
2018-04-11T10:27:35.761Z,64.45
2018-04-11T10:30:01.573Z,64.48
2018-04-11T10:32:27.261Z,64.70
2018-04-11T10:34:52.944Z,66.10
2018-04-11T10:37:18.642Z,66.70
2018-04-11T10:39:44.452Z,67.24
2018-04-11T10:42:10.055Z,67.72
2018-04-11T10:44:35.740Z,67.53
2018-04-11T10:47:01.414Z,67.43
2018-04-11T10:49:27.379Z,67.15
2018-04-11T10:51:53.070Z,66.27
2018-04-11T10:54:18.723Z,66.01
2018-04-11T10:56:44.416Z,64.79
2018-04-11T10:59:10.074Z,64.14
2018-04-11T11:01:35.778Z,64.12
2018-04-11T11:04:01.531Z,64.50
2018-04-11T11:06:27.192Z,64.00
2018-04-11T11:08:52.843Z,64.21
2018-04-11T11:11:18.500Z,64.36
2018-04-11T11:13:44.171Z,63.89
2018-04-11T11:16:09.832Z,63.70
2018-04-11T11:18:35.855Z,63.66
2018-04-11T11:21:01.519Z,63.97
2018-04-11T11:23:27.220Z,63.32
2018-04-11T11:25:53.799Z,62.64
2018-04-11T11:28:19.501Z,63.40
2018-04-11T11:30:45.204Z,63.59
2018-04-11T11:33:10.883Z,63.78
2018-04-11T11:35:36.574Z,62.90
2018-04-11T11:38:02.260Z,62.76
2018-04-11T11:40:27.932Z,62.23
2018-04-11T11:42:53.626Z,62.48
2018-04-11T11:45:19.351Z,62.85
2018-04-11T11:47:45.081Z,62.45
2018-04-11T11:50:10.755Z,62.44
2018-04-11T11:52:36.432Z,61.77
2018-04-11T11:55:02.135Z,61.11
2018-04-11T11:57:27.846Z,61.72
2018-04-11T11:59:53.535Z,62.28
2018-04-11T12:02:19.233Z,62.56
2018-04-11T12:04:44.875Z,63.47
2018-04-11T12:07:10.540Z,63.23
2018-04-11T12:09:36.234Z,63.35
2018-04-11T12:12:01.891Z,62.17
2018-04-11T12:14:27.568Z,61.97
2018-04-11T12:16:53.239Z,62.00
2018-04-11T12:19:18.914Z,62.68
2018-04-11T12:21:44.623Z,62.58
2018-04-11T12:24:10.336Z,63.15
2018-04-11T12:26:36.006Z,62.87
2018-04-11T12:29:01.687Z,62.83
2018-04-11T12:31:27.343Z,62.39
2018-04-11T12:33:53.025Z,62.52
2018-04-11T12:36:19.034Z,62.80
2018-04-11T12:38:44.725Z,62.63
2018-04-11T12:41:10.479Z,62.19
2018-04-11T12:43:36.143Z,61.98
2018-04-11T12:46:01.830Z,61.13
2018-04-11T12:48:27.527Z,60.90
2018-04-11T12:50:53.209Z,61.28
2018-04-11T12:53:18.903Z,62.05
2018-04-11T12:55:44.651Z,62.31
2018-04-11T12:58:10.295Z,62.94
2018-04-11T13:00:36.263Z,63.20
2018-04-11T13:03:01.931Z,62.94
2018-04-11T13:05:27.639Z,62.61
2018-04-11T13:07:53.311Z,62.84
2018-04-11T13:10:19.003Z,63.14
2018-04-11T13:12:44.682Z,63.07
2018-04-11T13:15:10.719Z,62.69
2018-04-11T13:17:36.326Z,62.67
2018-04-11T13:20:01.999Z,62.85
2018-04-11T13:22:27.658Z,62.92
2018-04-11T13:24:53.359Z,64.01
2018-04-11T13:27:19.068Z,64.52
2018-04-11T13:29:44.731Z,63.92
2018-04-11T13:32:10.431Z,63.68
2018-04-11T13:34:36.099Z,64.21
2018-04-11T13:37:01.794Z,64.11
2018-04-11T13:39:27.485Z,64.37
2018-04-11T13:41:53.171Z,65.27
2018-04-11T13:44:18.876Z,64.68
2018-04-11T13:46:44.567Z,64.70
2018-04-11T13:49:10.258Z,64.92
2018-04-11T13:51:35.970Z,65.13
2018-04-11T13:54:01.671Z,64.43
2018-04-11T13:56:27.605Z,64.48
2018-04-11T13:58:53.283Z,64.74
2018-04-11T14:01:19.007Z,65.06
2018-04-11T14:03:44.698Z,64.99
2018-04-11T14:06:10.387Z,65.06
2018-04-11T14:08:36.066Z,65.44
2018-04-11T14:11:01.743Z,65.65
2018-04-11T14:13:27.499Z,65.65
2018-04-11T14:15:53.199Z,65.64
2018-04-11T14:18:18.892Z,65.58
2018-04-11T14:20:44.567Z,65.47
2018-04-11T14:23:10.268Z,65.38
2018-04-11T14:25:35.970Z,65.38
2018-04-11T14:28:01.849Z,64.68
2018-04-11T14:30:27.579Z,65.42
2018-04-11T14:32:53.259Z,65.71
2018-04-11T14:35:18.972Z,66.16
2018-04-11T14:37:44.719Z,65.79
2018-04-11T14:40:10.409Z,65.93
2018-04-11T14:42:36.194Z,65.89
2018-04-11T14:45:01.933Z,65.93
2018-04-11T14:47:27.630Z,66.12
2018-04-11T14:49:53.700Z,65.71
2018-04-11T14:52:19.381Z,65.87
2018-04-11T14:54:45.347Z,65.39
2018-04-11T14:57:11.010Z,65.53
2018-04-11T14:59:36.772Z,66.05
2018-04-11T15:02:02.471Z,66.55
2018-04-11T15:04:28.411Z,66.10
2018-04-11T15:06:54.154Z,65.96
2018-04-11T15:09:19.806Z,66.40
2018-04-11T15:11:45.505Z,66.36
2018-04-11T15:14:11.210Z,66.20
2018-04-11T15:16:36.890Z,65.84
2018-04-11T15:19:02.584Z,66.03
2018-04-11T15:21:28.251Z,65.65
2018-04-11T15:23:53.967Z,65.93
2018-04-11T15:26:19.649Z,65.28
2018-04-11T15:28:45.309Z,65.30
2018-04-11T15:31:11.045Z,65.42
2018-04-11T15:33:36.708Z,65.61
2018-04-11T15:36:02.713Z,65.88
2018-04-11T15:38:28.381Z,66.18
2018-04-11T15:40:54.112Z,66.19
2018-04-11T15:43:19.844Z,66.30
2018-04-11T15:45:45.572Z,66.64
2018-04-11T15:48:11.254Z,65.94
2018-04-11T15:50:36.951Z,65.82
2018-04-11T15:53:02.615Z,65.44
2018-04-11T15:55:28.308Z,65.75
2018-04-11T15:57:54.027Z,65.14
2018-04-11T16:00:19.739Z,65.12
2018-04-11T16:02:45.399Z,64.80
2018-04-11T16:05:11.103Z,65.35
2018-04-11T16:07:36.770Z,65.47
2018-04-11T16:10:02.523Z,65.38
2018-04-11T16:12:28.245Z,66.12
2018-04-11T16:14:53.923Z,66.38
2018-04-11T16:17:19.622Z,66.02
2018-04-11T16:19:45.283Z,65.98
2018-04-11T16:22:10.971Z,66.17
2018-04-11T16:24:36.636Z,65.88
2018-04-11T16:27:02.317Z,65.91
2018-04-11T16:29:27.991Z,65.93
2018-04-11T16:31:53.739Z,66.36
2018-04-11T16:34:19.435Z,66.96
2018-04-11T16:36:45.110Z,67.53
2018-04-11T16:39:10.774Z,67.92
2018-04-11T16:41:36.452Z,67.90
2018-04-11T16:44:02.128Z,68.28
2018-04-11T16:46:27.851Z,68.67
2018-04-11T16:48:53.661Z,68.70
2018-04-11T16:51:19.396Z,68.14
2018-04-11T16:53:45.102Z,68.29
2018-04-11T16:56:10.771Z,68.38
2018-04-11T16:58:36.699Z,68.75
2018-04-11T17:01:02.696Z,68.80
2018-04-11T17:03:28.377Z,69.03
2018-04-11T17:05:54.071Z,69.22
2018-04-11T17:08:19.774Z,69.75
2018-04-11T17:10:45.447Z,69.50
2018-04-11T17:13:11.146Z,69.14
2018-04-11T17:15:36.816Z,68.49
2018-04-11T17:18:02.536Z,68.34
2018-04-11T17:20:34.239Z,68.92
2018-04-11T17:23:06.030Z,69.26
2018-04-11T17:28:39.425Z,69.55
2018-04-11T17:31:14.144Z,69.52
2018-04-11T17:33:39.849Z,69.74
2018-04-11T17:36:05.531Z,69.75
2018-04-11T17:38:31.203Z,69.91
2018-04-11T17:40:56.904Z,69.84
2018-04-11T17:43:22.620Z,70.09
2018-04-11T17:45:48.331Z,70.25
2018-04-11T17:48:14.016Z,70.15
2018-04-11T17:50:39.718Z,69.65
2018-04-11T17:53:05.383Z,69.49
2018-04-11T17:55:31.323Z,69.61
2018-04-11T17:57:57.002Z,69.55
2018-04-11T18:00:22.661Z,69.78
2018-04-11T18:02:48.366Z,69.99
2018-04-11T18:05:14.012Z,70.02
2018-04-11T18:07:39.719Z,70.38
2018-04-11T18:10:05.505Z,70.23
2018-04-11T18:12:31.183Z,70.18
2018-04-11T18:14:56.867Z,70.09
2018-04-11T18:20:08.095Z,70.44
2018-04-11T18:22:33.760Z,70.88
2018-04-11T18:24:59.447Z,71.05
2018-04-11T18:27:25.107Z,71.35
2018-04-11T18:29:54.871Z,71.84
2018-04-11T18:32:20.563Z,71.99
2018-04-11T18:34:46.227Z,71.97
2018-04-11T18:37:12.108Z,71.89
2018-04-11T18:39:37.830Z,71.63
2018-04-11T18:42:05.347Z,71.28
2018-04-11T18:44:31.052Z,71.30
2018-04-11T18:46:56.731Z,71.62
2018-04-11T18:49:22.411Z,71.93
2018-04-11T18:51:48.096Z,72.40
2018-04-11T18:54:13.755Z,72.94
2018-04-11T18:56:39.475Z,73.21
2018-04-11T18:59:05.140Z,73.23
2018-04-11T19:01:31.050Z,73.43
2018-04-11T19:03:56.728Z,73.62
2018-04-11T19:06:22.415Z,74.10
2018-04-11T19:08:48.619Z,74.17
2018-04-11T19:11:14.308Z,74.32
2018-04-11T19:13:39.975Z,74.33
2018-04-11T19:16:05.658Z,74.39
2018-04-11T19:18:31.325Z,74.60
2018-04-11T19:20:57.027Z,74.60
2018-04-11T19:23:22.687Z,74.41
2018-04-11T19:25:48.356Z,74.27
2018-04-11T19:28:14.044Z,74.06
2018-04-11T19:30:39.803Z,73.74
2018-04-11T19:33:05.467Z,73.49
2018-04-11T19:35:31.160Z,73.51
2018-04-11T19:37:56.869Z,73.43
2018-04-11T19:40:22.527Z,73.53
2018-04-11T19:42:48.189Z,73.66
2018-04-11T19:45:13.886Z,73.81
2018-04-11T19:47:39.551Z,73.78
2018-04-11T19:50:05.340Z,73.56
2018-04-11T19:52:30.986Z,73.38
2018-04-11T19:54:56.700Z,73.41
2018-04-11T19:57:22.376Z,73.58
2018-04-11T19:59:48.075Z,73.50
2018-04-11T20:02:13.735Z,73.57
2018-04-11T20:04:39.415Z,73.49
2018-04-11T20:07:05.121Z,73.34
2018-04-11T20:09:30.803Z,73.07
2018-04-11T20:11:56.547Z,73.11
2018-04-11T20:14:22.235Z,73.25
2018-04-11T20:16:47.922Z,73.34
2018-04-11T20:19:13.592Z,73.10
2018-04-11T20:21:39.263Z,73.98
2018-04-11T20:24:04.936Z,73.79
2018-04-11T20:26:30.663Z,73.93
2018-04-11T20:28:56.780Z,74.18
2018-04-11T20:31:22.881Z,74.05
2018-04-11T20:33:50.154Z,73.50
2018-04-11T20:36:15.862Z,73.07
2018-04-11T20:38:41.572Z,73.09
2018-04-11T20:41:07.282Z,73.36
2018-04-11T20:43:33.018Z,73.26
2018-04-11T20:45:58.721Z,72.84
2018-04-11T20:48:24.421Z,72.88
2018-04-11T20:50:50.080Z,72.89
2018-04-11T20:53:15.765Z,73.28
2018-04-11T20:55:41.439Z,73.03
2018-04-11T20:58:07.126Z,72.86
2018-04-11T21:00:32.799Z,72.90
2018-04-11T21:02:58.457Z,72.82
2018-04-11T21:05:24.156Z,73.23
2018-04-11T21:07:49.835Z,73.04
2018-04-11T21:10:15.503Z,72.70
2018-04-11T21:12:41.175Z,72.37
2018-04-11T21:15:06.868Z,72.52
2018-04-11T21:17:32.549Z,73.44
2018-04-11T21:19:58.231Z,73.59
2018-04-11T21:22:23.901Z,73.06
2018-04-11T21:24:49.642Z,73.05
2018-04-11T21:27:15.329Z,72.96
2018-04-11T21:29:41.027Z,72.67
2018-04-11T21:32:06.735Z,72.51
2018-04-11T21:34:32.395Z,72.86
2018-04-11T21:36:58.068Z,72.82
2018-04-11T21:39:23.774Z,72.96
2018-04-11T21:41:49.510Z,73.11
2018-04-11T21:44:15.177Z,73.17
2018-04-11T21:46:40.882Z,72.73
2018-04-11T21:49:06.557Z,72.77
2018-04-11T21:51:32.224Z,73.11
2018-04-11T21:53:57.894Z,72.97
2018-04-11T21:56:23.567Z,73.17
2018-04-11T21:58:49.245Z,73.41
2018-04-11T22:01:14.907Z,73.82
2018-04-11T22:03:40.564Z,74.02
2018-04-11T22:06:06.246Z,74.23
2018-04-11T22:08:31.943Z,74.43
2018-04-11T22:10:57.638Z,74.74
2018-04-11T22:13:23.302Z,74.74
2018-04-11T22:15:48.979Z,74.74
2018-04-11T22:18:14.658Z,74.83
2018-04-11T22:20:40.342Z,74.58
2018-04-11T22:23:06.047Z,74.45
2018-04-11T22:25:31.705Z,74.48
2018-04-11T22:27:57.384Z,74.29
2018-04-11T22:30:23.040Z,74.46
2018-04-11T22:32:48.743Z,74.55
2018-04-11T22:35:14.423Z,74.49
2018-04-11T22:37:40.082Z,74.24
2018-04-11T22:40:05.779Z,74.42
2018-04-11T22:42:31.466Z,74.27
2018-04-11T22:44:57.139Z,74.35
2018-04-11T22:47:22.838Z,74.35
2018-04-11T22:49:48.535Z,74.43
2018-04-11T22:52:14.219Z,74.65
2018-04-11T22:54:39.928Z,74.37
2018-04-11T22:57:05.599Z,74.42
2018-04-11T22:59:31.331Z,74.87
2018-04-11T23:01:57.359Z,75.00
2018-04-11T23:04:23.044Z,74.86
2018-04-11T23:06:48.771Z,75.29
2018-04-11T23:09:14.433Z,75.35
2018-04-11T23:11:40.123Z,75.42
2018-04-11T23:14:05.804Z,75.48
2018-04-11T23:16:31.502Z,75.35
2018-04-11T23:18:57.183Z,75.36
2018-04-11T23:21:22.861Z,75.60
2018-04-11T23:23:48.565Z,75.74
2018-04-11T23:26:14.231Z,75.84
2018-04-11T23:28:39.908Z,75.91
2018-04-11T23:31:05.617Z,75.73
2018-04-11T23:36:28.141Z,75.96
2018-04-11T23:38:53.826Z,75.77
2018-04-11T23:41:19.535Z,75.78
2018-04-11T23:43:45.210Z,75.65
2018-04-11T23:46:11.131Z,75.49
2018-04-11T23:48:36.811Z,75.49
2018-04-11T23:51:02.495Z,75.44
2018-04-11T23:53:28.158Z,75.23
2018-04-11T23:55:53.839Z,75.04
2018-04-11T23:58:19.514Z,74.78
